Relevés horaires Florennes (Belgique)


Relevés horaires à Florennes - Dimanche 29 Juin 2025
Heure UTC1 Température [°C] Vent [km/h] Hum. [%] Pres.4 [hPa] Visi. [Km] Nébu. [octa] Préc.5 [mm] Cond.
2m. Res. Ros. Dir.2 Vit. Moy. Raf.3
23:00 19.2 19.2 16.4 NNE 3.7 -- 9.3 84 1022.6(0.2/3h) 17 -- -- --
22:00 20.4 20.4 16.8 N 5.6 -- 11.1 80 1022.5(0.3/3h) >70 -- -- --
21:00 21.6 21.6 17.5 N 7.4 -- 11.1 78 1022.3(0.0/3h) >70 -- -- --
20:00 22.0 22.0 18.0 N 5.6 -- 7.4 78 1022(-0.5/3h) >70 -- -- --
19:00 24.7 24.7 17.9 N 5.6 -- 9.3 66 1021.6(-1.1/3h) >70 -- -- --
18:00 26.3 26.3 17.7 N 7.4 -- 13.0 59 1021.7(-1.2/3h) >70 -- -- --
17:00 26.8 26.8 17.4 NNE 7.4 -- 13.0 56 1022(-1.1/3h) >70 -- -- --
16:00 27.3 27.3 17.3 N 5.6 -- 11.1 54 1022.5(-1.0/3h) >70 -- -- --
15:00 26.2 26.2 18.1 N 5.6 -- 11.1 61 1023(-1.0/3h) >70 -- -- --
14:00 27.2 27.2 18.0 N 5.6 -- 11.1 57 1023.2(-1.0/3h) >70 -- -- --
13:00 25.5 25.5 17.4 N 5.6 -- 7.4 61 1023.7(-0.8/3h) >70 -- -- --
12:00 24.5 24.5 18.6 N 3.7 -- 7.4 70 1024.2(-0.5/3h) 17 -- -- --
11:00 23.4 23.4 18.2 NNO 1.9 -- 5.6 73 1024.7(-0.2/3h) >70 -- -- --
10:00 22.2 22.2 18.2 NNO 1.9 -- 5.6 78 1025(0.0/3h) 16 -- -- --
09:00 20.2 20.2 16.8 NNO 1.9 -- 7.4 81 1025.2(0.3/3h) >70 -- -- --
08:00 20.0 20.0 17.7 NNO 1.9 -- 5.6 87 1025.2(0.5/3h) 15 -- -- --
07:00 18.7 18.7 16.5 NNO 1.9 -- 5.6 87 1025.4(0.5/3h) 40 -- -- --
06:00 18.0 18.0 16.7 NNO 1.9 -- 3.7 92 1025.2(0.1/3h) >70 -- -- NA
05:00 16.2 16.2 16.1 NNO 1.9 -- 1.9 99 1025.2(-0.4/3h) 3.6 -- -- Du brouillard ou du brouillard glacé (plus correctement designé sous le nom de brume) est observé et la visibilité n'est ni inférieure à 5/8 de mille ni supérieure à 6 milles
04:00 15.5 15.5 15.0 NNO 1.9 -- 1.9 97 1025.2(-0.4/3h) 35 -- -- --
03:00 16.0 16.0 15.7 NNO 1.9 -- 3.7 98 1025.2(-0.8/3h) 19 -- -- --
02:00 16.5 16.5 15.9 NNO 1.9 -- 3.7 96 1025.5(-0.6/3h) 30 -- -- --
01:00 17.2 17.2 16.2 NNO 1.9 -- 3.7 94 1025.5(-0.3/3h) 17 -- -- --
00:00 17.6 17.6 16.2 NNO 1.9 -- 9.3 92 1026(0.0/3h) >70 -- -- --

1 Coordinated Universal Time. Actuellement il est 09:00 locale et 07:00 UTC.

2 Le vent souffle depuis la direction indiquée vers la direction oposée.

3 Les rafales max. sont disponible 40 min après l'heure du relevé.

4 Pour les stations d'altitude (plus de 600m) le géopotentiel du niveau le plus proche de la pression obligatoire est indiqué.

5 Les stations disposant d'un diffuseur peuvent indiquer "trace". Cela signifie que des précipitations ont touchés le sol mais que la quantité est inférieure à 0.1 mm.

Récapitulatif de la journée
Température [°C] Vent [km/h] Ensoleillement4 [h] Precipitations totale5 [mm] Pression [Hpa]
Min1 Max.2 Moy.3 Max. Min Max.
15.3 27.7 0 13.0 0 h 0 min 0 1021.6 1026.0

1 Température minimale relevée entre 18:00 UTC la veille et 18:00 UTC le jour donné.

2 Température maximale relevée entre 06:00 UTC le jour donné et 06:00 UTC le lendemain.

3 Vent moyen de la journée basé sur les relevés horaires.

4 Ensoleillement en heures relevé entre 06:00 UTC la veille et 06:00 UTC le jour donné.

5 Précipitations totales tombées entre 06:00 UTC la jour donné et 06:00 UTC le lendemain.

Graphiques horaires